CFG755 ESGG-ENRO
Flight info
| Callsign | CFG755 |
|---|---|
| Flight time | N/A |
| Altitude | 36000 |
| Route | SABAK L997 REGMA DCT GIGNI |
| Aircraft | A320/M-SDE3FGHIRWY/LB1 |
Departure
| Time | 2026-05-07 15:22 |
|---|---|
| Airport | Göteborg Landvetter Airport (ESGG) |
Arrival
| Time | N/A |
|---|---|
| Airport | Røros Airport (ENRO) |
| Time | Latitude | Longitude | Altitude | Speed | Heading |
|---|---|---|---|---|---|
| 2026-05-07 14:58 | 57.67036 | 12.29313 | 529 ft | 0 kts | 251° |
| 2026-05-07 15:14 | 57.67036 | 12.29312 | 529 ft | 0 kts | 251° |
| 2026-05-07 15:14 | 57.67036 | 12.29310 | 529 ft | 0 kts | 251° |
| 2026-05-07 15:14 | 57.67036 | 12.29313 | 529 ft | 2 kts | 251° |
| 2026-05-07 15:15 | 57.67051 | 12.29393 | 529 ft | 4 kts | 245° |
| 2026-05-07 15:15 | 57.67044 | 12.29402 | 529 ft | 7 kts | 192° |
| 2026-05-07 15:15 | 57.67031 | 12.29394 | 529 ft | 0 kts | 197° |
| 2026-05-07 15:17 | 57.66979 | 12.29346 | 528 ft | 15 kts | 222° |
| 2026-05-07 15:18 | 57.67028 | 12.29214 | 529 ft | 24 kts | 338° |
| 2026-05-07 15:18 | 57.67221 | 12.29339 | 530 ft | 25 kts | 26° |
| 2026-05-07 15:18 | 57.67324 | 12.29433 | 531 ft | 0 kts | 26° |
| 2026-05-07 15:18 | 57.67349 | 12.29454 | 532 ft | 14 kts | 22° |
| 2026-05-07 15:19 | 57.67432 | 12.29382 | 532 ft | 15 kts | 302° |
| 2026-05-07 15:19 | 57.67450 | 12.29300 | 532 ft | 0 kts | 286° |
| 2026-05-07 15:19 | 57.67451 | 12.29294 | 532 ft | 1 kts | 286° |
| 2026-05-07 15:20 | 57.67452 | 12.29283 | 532 ft | 0 kts | 282° |
| 2026-05-07 15:20 | 57.67458 | 12.29162 | 531 ft | 21 kts | 266° |
| 2026-05-07 15:20 | 57.67411 | 12.29015 | 530 ft | 3 kts | 208° |
| 2026-05-07 15:21 | 57.67395 | 12.28998 | 530 ft | 2 kts | 208° |
| 2026-05-07 15:21 | 57.67384 | 12.28987 | 530 ft | 2 kts | 208° |
| 2026-05-07 15:21 | 57.67375 | 12.28978 | 530 ft | 2 kts | 208° |
| 2026-05-07 15:21 | 57.67357 | 12.28960 | 530 ft | 10 kts | 206° |
| 2026-05-07 15:22 | 57.67017 | 12.28614 | 529 ft | 104 kts | 212° |
| 2026-05-07 15:22 | 57.66144 | 12.27844 | 596 ft | 163 kts | 210° |
| 2026-05-07 15:22 | 57.65138 | 12.26619 | 1325 ft | 182 kts | 207° |
| 2026-05-07 15:22 | 57.63982 | 12.25657 | 2491 ft | 184 kts | 206° |
| 2026-05-07 15:23 | 57.62777 | 12.24632 | 3292 ft | 200 kts | 206° |
| 2026-05-07 15:23 | 57.61426 | 12.23458 | 3688 ft | 222 kts | 207° |
| 2026-05-07 15:23 | 57.59987 | 12.22192 | 4176 ft | 240 kts | 205° |
| 2026-05-07 15:23 | 57.58414 | 12.20781 | 4769 ft | 261 kts | 208° |
| 2026-05-07 15:24 | 57.57038 | 12.18516 | 5642 ft | 270 kts | 237° |
| 2026-05-07 15:24 | 57.56399 | 12.15196 | 6644 ft | 272 kts | 259° |
| 2026-05-07 15:24 | 57.56041 | 12.11771 | 7667 ft | 273 kts | 259° |
| 2026-05-07 15:24 | 57.55683 | 12.08282 | 9018 ft | 274 kts | 259° |
| 2026-05-07 15:25 | 57.55506 | 12.04729 | 10402 ft | 279 kts | 275° |
| 2026-05-07 15:25 | 57.56069 | 12.01213 | 11433 ft | 296 kts | 299° |
| 2026-05-07 15:25 | 57.57532 | 11.98321 | 12042 ft | 326 kts | 327° |
| 2026-05-07 15:25 | 57.59718 | 11.96636 | 12572 ft | 354 kts | 340° |
| 2026-05-07 15:26 | 57.62182 | 11.95227 | 13058 ft | 377 kts | 342° |
| 2026-05-07 15:26 | 57.64703 | 11.93895 | 13918 ft | 386 kts | 342° |
| 2026-05-07 15:26 | 57.67313 | 11.92545 | 14633 ft | 390 kts | 342° |
| 2026-05-07 15:26 | 57.69951 | 11.91159 | 15263 ft | 394 kts | 342° |
| 2026-05-07 15:27 | 57.72593 | 11.89740 | 15889 ft | 398 kts | 341° |
| 2026-05-07 15:27 | 57.75265 | 11.88271 | 16507 ft | 401 kts | 341° |
| 2026-05-07 15:27 | 57.77957 | 11.86768 | 17101 ft | 405 kts | 341° |
| 2026-05-07 15:27 | 57.80673 | 11.85240 | 17689 ft | 409 kts | 340° |
| 2026-05-07 15:28 | 57.83416 | 11.83695 | 18253 ft | 412 kts | 340° |
| 2026-05-07 15:28 | 57.86138 | 11.82162 | 18761 ft | 415 kts | 340° |
| 2026-05-07 15:28 | 57.88957 | 11.80573 | 19245 ft | 418 kts | 340° |
| 2026-05-07 15:28 | 57.91750 | 11.78995 | 19716 ft | 421 kts | 340° |
| 2026-05-07 15:29 | 57.94529 | 11.77423 | 20186 ft | 423 kts | 340° |
| 2026-05-07 15:29 | 57.97351 | 11.75826 | 20661 ft | 425 kts | 340° |
| 2026-05-07 15:29 | 58.00190 | 11.74220 | 21101 ft | 427 kts | 340° |
| 2026-05-07 15:29 | 58.03045 | 11.72602 | 21522 ft | 429 kts | 340° |
| 2026-05-07 15:30 | 58.05917 | 11.70973 | 21865 ft | 430 kts | 340° |
| 2026-05-07 15:30 | 58.08779 | 11.69341 | 22247 ft | 433 kts | 340° |
| 2026-05-07 15:30 | 58.11682 | 11.67679 | 22642 ft | 435 kts | 340° |
| 2026-05-07 15:30 | 58.14590 | 11.66016 | 23030 ft | 438 kts | 340° |
| 2026-05-07 15:31 | 58.17527 | 11.64408 | 23405 ft | 441 kts | 343° |
| 2026-05-07 15:31 | 58.20579 | 11.63361 | 23749 ft | 446 kts | 347° |
| 2026-05-07 15:31 | 58.23637 | 11.62427 | 24034 ft | 448 kts | 347° |
| 2026-05-07 15:31 | 58.26729 | 11.61480 | 24340 ft | 449 kts | 347° |
| 2026-05-07 15:32 | 58.29807 | 11.60537 | 24888 ft | 442 kts | 347° |
| 2026-05-07 15:32 | 58.32739 | 11.59646 | 26037 ft | 423 kts | 347° |
| 2026-05-07 15:32 | 58.35576 | 11.58789 | 27282 ft | 404 kts | 346° |
| 2026-05-07 15:32 | 58.38287 | 11.57968 | 28603 ft | 384 kts | 346° |
| 2026-05-07 15:33 | 58.40858 | 11.57185 | 29991 ft | 364 kts | 345° |
| 2026-05-07 15:33 | 58.43296 | 11.56435 | 31173 ft | 344 kts | 345° |
| 2026-05-07 15:33 | 58.45638 | 11.55701 | 31697 ft | 345 kts | 345° |
| 2026-05-07 15:33 | 58.48044 | 11.54923 | 31828 ft | 356 kts | 345° |
| 2026-05-07 15:34 | 58.50522 | 11.54120 | 31965 ft | 366 kts | 345° |
| 2026-05-07 15:34 | 58.53065 | 11.53303 | 32133 ft | 375 kts | 345° |
| 2026-05-07 15:34 | 58.55667 | 11.52477 | 32273 ft | 384 kts | 345° |
| 2026-05-07 15:34 | 58.58340 | 11.51632 | 32403 ft | 392 kts | 345° |
| 2026-05-07 15:35 | 58.61066 | 11.50776 | 32533 ft | 400 kts | 345° |
| 2026-05-07 15:35 | 58.63838 | 11.49910 | 32670 ft | 408 kts | 346° |
| 2026-05-07 15:35 | 58.66661 | 11.49029 | 32794 ft | 414 kts | 346° |
| 2026-05-07 15:35 | 58.69528 | 11.48132 | 32944 ft | 420 kts | 346° |
| 2026-05-07 15:36 | 58.72437 | 11.47224 | 33074 ft | 425 kts | 346° |
| 2026-05-07 15:36 | 58.75366 | 11.46307 | 33211 ft | 429 kts | 346° |
| 2026-05-07 15:36 | 58.78333 | 11.45368 | 33349 ft | 432 kts | 346° |
| 2026-05-07 15:36 | 58.81311 | 11.44420 | 33519 ft | 434 kts | 345° |
| 2026-05-07 15:37 | 58.84297 | 11.43470 | 33746 ft | 434 kts | 345° |
| 2026-05-07 15:37 | 58.87270 | 11.42526 | 34000 ft | 434 kts | 345° |
| 2026-05-07 15:37 | 58.90247 | 11.41577 | 34234 ft | 433 kts | 345° |
| 2026-05-07 15:37 | 58.93223 | 11.40623 | 34444 ft | 433 kts | 345° |
| 2026-05-07 15:38 | 58.96190 | 11.39670 | 34609 ft | 434 kts | 345° |
| 2026-05-07 15:38 | 58.99174 | 11.38707 | 34785 ft | 435 kts | 345° |
| 2026-05-07 15:38 | 59.02162 | 11.37741 | 34961 ft | 435 kts | 345° |
| 2026-05-07 15:38 | 59.05132 | 11.36788 | 35554 ft | 424 kts | 346° |
| 2026-05-07 15:39 | 59.08008 | 11.35869 | 35910 ft | 424 kts | 346° |
| 2026-05-07 15:39 | 59.10948 | 11.35101 | 36092 ft | 430 kts | 351° |
| 2026-05-07 15:39 | 59.17057 | 11.35174 | 36109 ft | 445 kts | 356° |
| 2026-05-07 15:40 | 59.22271 | 11.35417 | 36109 ft | 448 kts | 356° |
| 2026-05-07 15:40 | 59.28475 | 11.35695 | 36109 ft | 449 kts | 356° |
| 2026-05-07 15:41 | 59.34715 | 11.35952 | 36103 ft | 449 kts | 356° |
| 2026-05-07 15:41 | 59.40964 | 11.36221 | 36134 ft | 449 kts | 355° |
| 2026-05-07 15:42 | 59.47235 | 11.36509 | 36121 ft | 449 kts | 355° |
| 2026-05-07 15:42 | 59.53494 | 11.36773 | 36116 ft | 449 kts | 355° |
| 2026-05-07 15:43 | 59.59720 | 11.37046 | 36100 ft | 450 kts | 355° |
| 2026-05-07 15:43 | 59.65973 | 11.37341 | 36108 ft | 450 kts | 355° |
| 2026-05-07 15:44 | 59.72245 | 11.37638 | 36121 ft | 450 kts | 355° |
| 2026-05-07 15:44 | 59.78502 | 11.37915 | 36110 ft | 449 kts | 355° |
| 2026-05-07 15:45 | 59.84761 | 11.38181 | 36108 ft | 449 kts | 355° |
| 2026-05-07 15:45 | 59.91019 | 11.38467 | 36104 ft | 450 kts | 355° |
| 2026-05-07 15:46 | 60.00380 | 11.38906 | 36098 ft | 450 kts | 355° |
| 2026-05-07 15:47 | 60.06633 | 11.39194 | 36091 ft | 450 kts | 355° |
| 2026-05-07 15:47 | 60.12897 | 11.39473 | 36089 ft | 450 kts | 355° |
| 2026-05-07 15:48 | 60.19162 | 11.39750 | 36100 ft | 450 kts | 354° |
| 2026-05-07 15:48 | 60.25421 | 11.40025 | 36102 ft | 450 kts | 354° |
| 2026-05-07 15:49 | 60.31691 | 11.40314 | 36086 ft | 449 kts | 354° |
| 2026-05-07 15:49 | 60.37942 | 11.40619 | 36089 ft | 449 kts | 354° |
| 2026-05-07 15:50 | 60.44184 | 11.40914 | 36094 ft | 450 kts | 354° |
| 2026-05-07 15:50 | 60.50465 | 11.41198 | 36097 ft | 450 kts | 354° |
| 2026-05-07 15:51 | 60.56695 | 11.41474 | 36132 ft | 451 kts | 354° |
| 2026-05-07 15:51 | 60.62979 | 11.41776 | 36115 ft | 452 kts | 354° |
| 2026-05-07 15:52 | 60.69275 | 11.42085 | 36108 ft | 452 kts | 354° |
| 2026-05-07 15:52 | 60.75582 | 11.42392 | 36102 ft | 453 kts | 354° |
| 2026-05-07 15:53 | 60.81887 | 11.42693 | 36105 ft | 453 kts | 354° |
| 2026-05-07 15:53 | 60.88200 | 11.42996 | 36096 ft | 453 kts | 354° |
| 2026-05-07 15:54 | 60.94511 | 11.43295 | 36089 ft | 453 kts | 354° |
| 2026-05-07 15:54 | 61.00818 | 11.43600 | 35916 ft | 454 kts | 354° |
| 2026-05-07 15:54 | 61.03966 | 11.43752 | 35677 ft | 453 kts | 354° |
| 2026-05-07 15:55 | 61.07084 | 11.43900 | 35439 ft | 452 kts | 354° |
| 2026-05-07 15:55 | 61.10217 | 11.44048 | 35195 ft | 450 kts | 354° |
| 2026-05-07 15:55 | 61.13341 | 11.44196 | 34727 ft | 450 kts | 353° |
| 2026-05-07 15:55 | 61.16463 | 11.44353 | 34050 ft | 445 kts | 353° |
| 2026-05-07 15:56 | 61.19556 | 11.44510 | 33207 ft | 443 kts | 353° |
| 2026-05-07 15:56 | 61.22632 | 11.44660 | 32401 ft | 443 kts | 353° |
| 2026-05-07 15:56 | 61.25721 | 11.44808 | 31544 ft | 443 kts | 353° |
| 2026-05-07 15:56 | 61.28801 | 11.44956 | 30662 ft | 442 kts | 353° |
| 2026-05-07 15:57 | 61.31886 | 11.45106 | 29732 ft | 443 kts | 353° |
| 2026-05-07 15:57 | 61.34983 | 11.45255 | 28732 ft | 446 kts | 353° |
| 2026-05-07 15:57 | 61.38073 | 11.45407 | 27560 ft | 448 kts | 354° |
| 2026-05-07 15:57 | 61.41218 | 11.45552 | 26078 ft | 451 kts | 354° |
| 2026-05-07 15:58 | 61.44351 | 11.45701 | 24675 ft | 450 kts | 354° |
| 2026-05-07 15:58 | 61.47439 | 11.45868 | 23090 ft | 438 kts | 355° |
| 2026-05-07 15:58 | 61.50434 | 11.46042 | 21202 ft | 434 kts | 355° |
| 2026-05-07 15:58 | 61.53491 | 11.46202 | 19341 ft | 442 kts | 356° |
| 2026-05-07 15:59 | 61.56525 | 11.46354 | 18136 ft | 427 kts | 357° |
| 2026-05-07 15:59 | 61.59487 | 11.46505 | 16790 ft | 427 kts | 357° |
| 2026-05-07 15:59 | 61.62430 | 11.46650 | 15539 ft | 415 kts | 357° |
| 2026-05-07 15:59 | 61.65276 | 11.46791 | 14300 ft | 402 kts | 358° |
| 2026-05-07 16:00 | 61.68037 | 11.46927 | 12990 ft | 391 kts | 358° |
| 2026-05-07 16:00 | 61.70732 | 11.47062 | 11670 ft | 382 kts | 359° |
| 2026-05-07 16:00 | 61.73351 | 11.47193 | 10459 ft | 373 kts | 360° |
| 2026-05-07 16:00 | 61.75946 | 11.47320 | 10048 ft | 376 kts | 0° |
| 2026-05-07 16:01 | 61.78502 | 11.47444 | 9895 ft | 356 kts | 0° |
| 2026-05-07 16:01 | 61.80902 | 11.47566 | 9752 ft | 329 kts | 360° |
| 2026-05-07 16:01 | 61.83089 | 11.47681 | 9613 ft | 300 kts | 0° |
| 2026-05-07 16:01 | 61.85090 | 11.47783 | 9475 ft | 286 kts | 0° |
| 2026-05-07 16:02 | 61.87075 | 11.47881 | 9342 ft | 285 kts | 0° |
| 2026-05-07 16:02 | 61.89075 | 11.47980 | 9191 ft | 283 kts | 360° |
| 2026-05-07 16:02 | 61.91023 | 11.48078 | 9066 ft | 282 kts | 0° |
| 2026-05-07 16:02 | 61.92984 | 11.48176 | 8932 ft | 281 kts | 0° |
| 2026-05-07 16:03 | 61.94941 | 11.48278 | 8795 ft | 281 kts | 360° |
| 2026-05-07 16:03 | 61.96899 | 11.48384 | 8667 ft | 281 kts | 0° |
| 2026-05-07 16:03 | 61.98853 | 11.48493 | 8585 ft | 280 kts | 1° |
| 2026-05-07 16:03 | 62.00791 | 11.48925 | 8593 ft | 281 kts | 9° |
| 2026-05-07 16:04 | 62.02710 | 11.49769 | 8595 ft | 282 kts | 11° |
| 2026-05-07 16:04 | 62.04630 | 11.50643 | 8598 ft | 282 kts | 11° |
| 2026-05-07 16:04 | 62.06546 | 11.51511 | 8598 ft | 281 kts | 11° |
| 2026-05-07 16:04 | 62.08457 | 11.52372 | 8597 ft | 280 kts | 10° |
| 2026-05-07 16:05 | 62.10363 | 11.53231 | 8597 ft | 280 kts | 10° |
| 2026-05-07 16:05 | 62.12273 | 11.54098 | 8597 ft | 281 kts | 11° |
| 2026-05-07 16:05 | 62.14185 | 11.54970 | 8596 ft | 280 kts | 11° |
| 2026-05-07 16:05 | 62.16095 | 11.55840 | 8597 ft | 281 kts | 11° |
| 2026-05-07 16:06 | 62.17991 | 11.56583 | 8590 ft | 280 kts | 4° |
| 2026-05-07 16:06 | 62.19956 | 11.57029 | 8456 ft | 280 kts | 5° |
| 2026-05-07 16:06 | 62.21851 | 11.57468 | 8318 ft | 272 kts | 5° |
| 2026-05-07 16:06 | 62.23719 | 11.57906 | 8182 ft | 263 kts | 5° |
| 2026-05-07 16:07 | 62.25558 | 11.58334 | 8051 ft | 272 kts | 4° |
| 2026-05-07 16:07 | 62.27456 | 11.58772 | 7921 ft | 276 kts | 5° |
| 2026-05-07 16:07 | 62.29374 | 11.59213 | 7792 ft | 276 kts | 5° |
| 2026-05-07 16:07 | 62.31283 | 11.59656 | 7664 ft | 276 kts | 4° |
| 2026-05-07 16:08 | 62.33197 | 11.60102 | 7536 ft | 276 kts | 4° |
| 2026-05-07 16:08 | 62.35102 | 11.60544 | 7409 ft | 275 kts | 5° |
| 2026-05-07 16:08 | 62.37013 | 11.60986 | 7006 ft | 276 kts | 4° |
| 2026-05-07 16:08 | 62.38924 | 11.61292 | 6546 ft | 274 kts | 357° |
| 2026-05-07 16:09 | 62.40824 | 11.61177 | 6073 ft | 273 kts | 356° |
| 2026-05-07 16:09 | 62.42717 | 11.61061 | 5595 ft | 271 kts | 357° |
| 2026-05-07 16:09 | 62.44604 | 11.60946 | 4993 ft | 275 kts | 358° |
| 2026-05-07 16:09 | 62.46530 | 11.60816 | 4456 ft | 268 kts | 354° |
| 2026-05-07 16:10 | 62.48187 | 11.59738 | 4327 ft | 235 kts | 321° |
| 2026-05-07 16:10 | 62.49215 | 11.57310 | 4333 ft | 208 kts | 306° |
| 2026-05-07 16:10 | 62.50067 | 11.54912 | 4346 ft | 191 kts | 307° |
| 2026-05-07 16:10 | 62.50826 | 11.52836 | 4311 ft | 164 kts | 307° |
| 2026-05-07 16:11 | 62.51491 | 11.51037 | 4160 ft | 145 kts | 307° |
| 2026-05-07 16:11 | 62.52101 | 11.49392 | 3975 ft | 135 kts | 308° |
| 2026-05-07 16:11 | 62.52687 | 11.47810 | 3758 ft | 134 kts | 308° |
| 2026-05-07 16:11 | 62.53266 | 11.46250 | 3544 ft | 133 kts | 308° |
| 2026-05-07 16:12 | 62.53843 | 11.44694 | 3316 ft | 132 kts | 309° |
| 2026-05-07 16:12 | 62.54418 | 11.43139 | 3106 ft | 132 kts | 309° |
| 2026-05-07 16:12 | 62.54994 | 11.41584 | 2879 ft | 132 kts | 309° |
| 2026-05-07 16:12 | 62.55562 | 11.40049 | 2687 ft | 129 kts | 309° |
| 2026-05-07 16:13 | 62.56125 | 11.38525 | 2511 ft | 128 kts | 309° |
| 2026-05-07 16:13 | 62.56681 | 11.37019 | 2346 ft | 130 kts | 309° |
| 2026-05-07 16:13 | 62.57241 | 11.35501 | 2186 ft | 129 kts | 309° |